Taloyoak, Canada
Current Conditions -  °F | °C
As of 8:00 PM on Saturday 22 Nov 2014 (Local Time) from CYYH Reporting Station
Clear Clear  
Wind Chill: -26°   Ceiling: Unl
Heat Index: -26°   Visibility: 15mi
Dew Point: -33°   Wind: 0mph
Humidity: 69%   Direction: NA
Pressure: 29.56"   Gusts: NA
Location:  69.53°N, 93.53°W
Report Text: CYYH 230200Z 00000KT 15SM SKC M32/M36 A2956 RMK IC FROINSLP015
Loading
Personal Weather Stations






























Interactive Weather Map New forecast layout! Learn more

10-Day Weather Forecast

Advertisements
Track Severe Weather on mobile